Nederlandse vliegveldverwachtingen (TAF)

Luchtvaartmeteorologische informatie voor operationeel gebruik en vluchtvoorbereiding is beschikbaar op www.luchtvaartmeteo.nl.

ZCZC
FC240900 EHWO AAA WOENSDRECHT/WOENSDRECHT   NLD   19 m.
TAF AMD EHWO 241442Z 2415/2422 CNL=

ZCZC
FC241700 EHGR RRE GILZE-RIJEN/GILZE-RIJEN   NLD   14 m.
TAF EHGR 241717Z 2418/2506 16007KT CAVOK=

ZCZC
FC241700 EHKD RRA DE KOOY/DE KOOY   NLD   1 m.
TAF EHKD 241733Z 2418/2506 18010KT 7000 BR NSC
    BECMG 2418/2420 CAVOK=

ZCZC
FC241700 EHLW RRB LEEUWARDEN/LEEUWARDEN   NLD   1 m.
TAF EHLW 241729Z 2418/2506 18007KT 7000 BR NSC
    BECMG 2418/2420 CAVOK=

ZCZC
FC241700 EHVK RRC VOLKEL/VOLKEL   NLD   21 m.
TAF EHVK 241724Z 2418/2506 15007KT CAVOK=

ZCZC
FT241700 EHAM     AMSTERDAM/SCHIPHOL   NLD   -3 m.
TAF EHAM 241715Z 2418/2524 17010KT CAVOK
    BECMG 2508/2511 20010KT FEW018
    TEMPO 2513/2524 BKN014=

ZCZC
FT241700 EHBK     MAASTRICHT/MAASTRICHT-AACHEN   NLD   114 m.
TAF EHBK 241649Z 2418/2524 18006KT CAVOK
    BECMG 2507/2510 21010KT=

ZCZC
FT241700 EHGG     GRONINGEN/EELDE   NLD   5 m.
TAF EHGG 241649Z 2418/2524 18008KT 9999 BKN040
    PROB40 2418/2507 6000
    PROB40 TEMPO 2518/2524 6000 BKN014=

ZCZC
FT241700 EHLE     LELYSTAD/LELYSTAD   NLD   -3 m.
TAF EHLE 241716Z 2418/2524 17010KT CAVOK
    BECMG 2508/2511 20010KT FEW018
    TEMPO 2514/2524 BKN014=

ZCZC
FT241700 EHRD     ROTTERDAM/THE HAGUE AIRPORT   NLD   -5 m.
TAF EHRD 241715Z 2418/2524 17010KT CAVOK
    BECMG 2508/2511 20010KT FEW018
    TEMPO 2512/2524 BKN014=

ZCZC
FT241700 EHEH     EINDHOVEN/EINDHOVEN   NLD   22 m.
TAF EHEH 241723Z 2418/2524 16007KT CAVOK
    BECMG 2509/2512 19010KT SCT020=

24/11/2020 19.15 uur LT